createdAt,value
2019-04-16T00:07:26.851Z,7.34
2019-04-16T00:23:03.366Z,6.83
2019-04-16T00:38:40.805Z,6.97
2019-04-16T00:54:11.557Z,6.36
2019-04-16T01:09:44.703Z,5.54
2019-04-16T01:25:17.516Z,5.22
2019-04-16T01:40:53.636Z,4.66
2019-04-16T01:56:28.902Z,4.62
2019-04-16T02:12:02.804Z,4.47
2019-04-16T02:27:36.544Z,3.81
2019-04-16T02:43:09.379Z,4.29
2019-04-16T02:58:45.105Z,4.25
2019-04-16T03:14:17.805Z,4.30
2019-04-16T03:29:51.199Z,4.00
2019-04-16T03:45:24.289Z,3.61
2019-04-16T04:00:57.445Z,3.78
2019-04-16T04:16:33.286Z,3.53
2019-04-16T04:32:06.438Z,4.45
2019-04-16T04:47:39.753Z,5.54
2019-04-16T05:03:15.332Z,7.04
2019-04-16T05:18:47.591Z,8.96
2019-04-16T05:34:20.432Z,9.53
2019-04-16T05:49:54.337Z,9.40
2019-04-16T06:05:29.902Z,9.60
2019-04-16T06:21:08.636Z,9.61
2019-04-16T06:36:44.479Z,12.34
2019-04-16T06:52:23.477Z,13.65
2019-04-16T07:24:10.744Z,14.59
2019-04-16T07:40:01.668Z,15.33
2019-04-16T07:55:45.093Z,20.43
2019-04-16T08:11:18.454Z,16.83
2019-04-16T08:26:51.515Z,17.02
2019-04-16T08:42:29.203Z,21.12
2019-04-16T08:58:05.873Z,21.62
2019-04-16T09:13:41.233Z,20.38
2019-04-16T09:45:37.186Z,20.84
2019-04-16T10:01:13.775Z,18.29
2019-04-16T10:16:46.652Z,18.63
2019-04-16T10:32:19.858Z,20.75
2019-04-16T10:47:55.976Z,21.26
2019-04-16T11:03:35.374Z,21.10
2019-04-16T11:19:09.422Z,18.88
2019-04-16T11:34:43.143Z,18.05
2019-04-16T11:50:16.273Z,12.29
2019-04-16T12:22:08.468Z,12.34
2019-04-16T12:37:47.464Z,13.14
2019-04-16T12:53:23.310Z,13.67
2019-04-16T13:08:59.562Z,14.08
2019-04-16T13:24:39.563Z,15.17
2019-04-16T13:40:14.833Z,15.78
2019-04-16T13:55:53.053Z,14.62
2019-04-16T14:11:25.839Z,15.79
2019-04-16T14:26:58.663Z,15.13
2019-04-16T14:42:31.544Z,13.82
2019-04-16T15:14:26.049Z,12.87
2019-04-16T15:30:05.208Z,12.37
2019-04-16T15:45:44.211Z,12.15
2019-04-16T16:01:20.938Z,11.89
2019-04-16T16:16:53.676Z,11.60
2019-04-16T16:32:26.373Z,11.32
2019-04-16T16:47:59.520Z,11.37
2019-04-16T17:03:38.848Z,11.26
2019-04-16T17:19:12.093Z,10.36
2019-04-16T17:34:45.083Z,9.70
2019-04-16T17:50:21.049Z,9.21
2019-04-16T18:05:57.119Z,9.63
2019-04-16T18:37:50.894Z,9.87
2019-04-16T18:53:23.947Z,9.75
2019-04-16T19:08:57.038Z,9.60
2019-04-16T19:24:30.293Z,9.40
2019-04-16T19:40:03.967Z,9.27
2019-04-16T19:55:37.164Z,9.09
2019-04-16T20:11:10.401Z,8.84
2019-04-16T20:26:43.824Z,8.60
2019-04-16T20:42:16.978Z,8.43
2019-04-16T20:57:49.840Z,8.10
2019-04-16T21:13:23.732Z,8.12
2019-04-16T21:29:03.178Z,7.99
2019-04-16T21:44:36.250Z,7.89
2019-04-16T22:00:09.204Z,7.51
2019-04-16T22:15:42.353Z,7.54
2019-04-16T22:31:15.848Z,7.46
2019-04-16T22:46:50.633Z,7.26
2019-04-16T23:02:26.957Z,7.20
2019-04-16T23:18:00.810Z,7.05
2019-04-16T23:33:35.121Z,7.10
2019-04-16T23:49:16.529Z,7.00
